createdAt,value
2019-05-12T00:00:09.205Z,9.87
2019-05-12T00:02:39.715Z,9.85
2019-05-12T00:05:09.015Z,9.76
2019-05-12T00:07:38.158Z,9.87
2019-05-12T00:10:08.634Z,9.80
2019-05-12T00:12:38.528Z,9.83
2019-05-12T00:15:08.391Z,9.68
2019-05-12T00:17:38.710Z,9.67
2019-05-12T00:20:08.575Z,9.73
2019-05-12T00:22:38.816Z,9.82
2019-05-12T00:25:08.894Z,9.75
2019-05-12T00:27:38.758Z,9.67
2019-05-12T00:30:10.480Z,9.74
2019-05-12T00:32:39.158Z,9.73
2019-05-12T00:35:08.109Z,9.76
2019-05-12T00:37:38.105Z,9.68
2019-05-12T00:40:08.840Z,9.93
2019-05-12T00:42:38.172Z,9.86
2019-05-12T00:45:08.218Z,9.71
2019-05-12T00:47:38.899Z,9.78
2019-05-12T00:50:08.134Z,9.81
2019-05-12T00:52:38.613Z,9.87
2019-05-12T00:55:07.980Z,9.47
2019-05-12T00:57:38.345Z,9.63
2019-05-12T01:00:10.329Z,9.73
2019-05-12T01:02:38.815Z,9.60
2019-05-12T01:05:08.670Z,9.51
2019-05-12T01:07:38.309Z,9.48
2019-05-12T01:10:08.705Z,9.42
2019-05-12T01:12:38.220Z,9.43
2019-05-12T01:15:08.372Z,9.49
2019-05-12T01:17:40.078Z,9.63
2019-05-12T01:20:09.108Z,9.51
2019-05-12T01:22:38.268Z,9.51
2019-05-12T01:25:08.550Z,9.53
2019-05-12T01:27:38.128Z,9.52
2019-05-12T01:30:08.784Z,9.44
2019-05-12T01:32:39.053Z,9.47
2019-05-12T01:35:08.910Z,9.49
2019-05-12T01:37:38.366Z,9.52
2019-05-12T01:40:09.262Z,9.49
2019-05-12T01:42:38.374Z,9.55
2019-05-12T01:45:09.203Z,9.70
2019-05-12T01:47:38.372Z,9.68
2019-05-12T01:50:09.034Z,9.57
2019-05-12T01:52:38.602Z,9.57
2019-05-12T01:55:08.334Z,9.53
2019-05-12T01:57:38.605Z,9.34
2019-05-12T02:00:12.203Z,9.40
2019-05-12T02:02:40.711Z,9.35
2019-05-12T02:05:09.754Z,9.41
2019-05-12T02:07:40.158Z,9.34
2019-05-12T02:10:09.499Z,9.20
2019-05-12T02:12:38.432Z,9.18
2019-05-12T02:15:08.207Z,9.32
2019-05-12T02:17:38.928Z,9.28
2019-05-12T02:20:11.726Z,9.33
2019-05-12T02:22:40.150Z,9.31
2019-05-12T02:25:09.294Z,9.33
2019-05-12T02:27:38.297Z,9.28
2019-05-12T02:30:09.705Z,9.22
2019-05-12T02:32:48.304Z,9.32
2019-05-12T02:35:09.350Z,9.16
2019-05-12T02:37:37.837Z,9.04
2019-05-12T02:40:11.174Z,9.04
2019-05-12T02:42:39.579Z,9.14
2019-05-12T02:45:10.174Z,9.10
2019-05-12T02:47:38.867Z,9.01
2019-05-12T02:50:08.967Z,9.02
2019-05-12T02:52:37.667Z,9.04
2019-05-12T02:55:06.830Z,9.13
2019-05-12T02:57:36.068Z,9.06
2019-05-12T03:00:07.308Z,9.16
2019-05-12T03:02:36.413Z,9.18
2019-05-12T03:05:07.225Z,9.02
2019-05-12T03:07:35.908Z,8.91
2019-05-12T03:10:06.951Z,8.90
2019-05-12T03:12:35.547Z,8.95
2019-05-12T03:15:05.765Z,8.88
2019-05-12T03:17:35.528Z,8.83
2019-05-12T03:20:06.247Z,8.86
2019-05-12T03:22:35.418Z,8.86
2019-05-12T03:25:15.535Z,8.74
2019-05-12T03:27:35.103Z,8.68
2019-05-12T03:30:11.443Z,8.77
2019-05-12T03:32:37.928Z,8.77
2019-05-12T03:35:08.815Z,8.73
2019-05-12T03:37:36.635Z,8.61
2019-05-12T03:40:07.104Z,8.66
2019-05-12T03:42:35.950Z,8.65
2019-05-12T03:45:05.097Z,8.53
2019-05-12T03:47:35.532Z,8.58
2019-05-12T03:50:05.126Z,8.53
2019-05-12T03:52:35.037Z,8.66
2019-05-12T03:55:05.754Z,8.57
2019-05-12T03:57:34.832Z,8.50
2019-05-12T04:00:05.843Z,8.53
2019-05-12T04:02:34.317Z,8.46
2019-05-12T04:05:05.226Z,8.42
2019-05-12T04:07:34.523Z,8.46
2019-05-12T04:10:05.306Z,8.40
2019-05-12T04:12:34.780Z,8.44
2019-05-12T04:15:05.196Z,8.48
2019-05-12T04:17:35.027Z,8.44
2019-05-12T04:20:05.184Z,8.45
2019-05-12T04:22:35.226Z,8.58
2019-05-12T04:25:06.079Z,8.57
2019-05-12T04:27:35.104Z,8.45
2019-05-12T04:30:05.477Z,8.44
2019-05-12T04:32:35.694Z,8.40
2019-05-12T04:35:07.370Z,8.47
2019-05-12T04:37:37.705Z,8.64
2019-05-12T04:40:06.881Z,8.66
2019-05-12T04:42:35.332Z,8.55
2019-05-12T04:45:05.239Z,8.51
2019-05-12T04:47:35.106Z,8.60
2019-05-12T04:50:05.730Z,8.70
2019-05-12T04:52:35.251Z,8.72
2019-05-12T04:55:05.171Z,8.68
2019-05-12T04:57:34.635Z,8.66
2019-05-12T05:00:05.476Z,8.75
2019-05-12T05:02:36.399Z,8.73
2019-05-12T05:05:06.857Z,8.73
2019-05-12T05:07:36.063Z,8.75
2019-05-12T05:10:05.452Z,8.79
2019-05-12T05:12:34.577Z,8.82
2019-05-12T05:15:05.422Z,9.07
2019-05-12T05:17:34.785Z,9.11
2019-05-12T05:20:04.665Z,9.10
2019-05-12T05:22:33.399Z,9.08
2019-05-12T05:25:04.103Z,9.24
2019-05-12T05:27:34.066Z,9.11
2019-05-12T05:30:04.045Z,9.09
2019-05-12T05:32:33.972Z,9.18
2019-05-12T05:35:03.984Z,9.25
2019-05-12T05:37:39.551Z,9.15
2019-05-12T05:40:04.042Z,9.15
2019-05-12T05:42:35.371Z,9.29
2019-05-12T05:45:04.887Z,9.14
2019-05-12T05:47:33.741Z,9.02
2019-05-12T05:50:04.604Z,9.21
2019-05-12T05:52:34.204Z,9.18
2019-05-12T05:55:05.811Z,9.10
2019-05-12T05:57:33.642Z,9.22
2019-05-12T06:00:09.438Z,9.18
2019-05-12T06:02:39.706Z,9.25
2019-05-12T06:05:05.176Z,9.30
2019-05-12T06:07:38.747Z,9.24
2019-05-12T06:10:06.386Z,9.22
2019-05-12T06:12:34.794Z,9.19
2019-05-12T06:15:04.227Z,9.29
2019-05-12T06:17:34.148Z,9.39
2019-05-12T06:20:04.354Z,9.30
2019-05-12T06:22:34.365Z,9.22
2019-05-12T06:25:05.024Z,9.27
2019-05-12T06:27:35.922Z,9.34
2019-05-12T06:30:06.362Z,9.29
2019-05-12T06:32:34.928Z,9.34
2019-05-12T06:35:04.851Z,9.22
2019-05-12T06:37:33.995Z,9.22
2019-05-12T06:40:03.596Z,9.23
2019-05-12T06:42:34.133Z,9.28
2019-05-12T06:45:03.785Z,9.29
2019-05-12T06:47:34.358Z,9.27
2019-05-12T06:50:03.951Z,9.40
2019-05-12T06:52:33.722Z,9.25
2019-05-12T06:55:04.085Z,9.32
2019-05-12T06:57:34.273Z,9.52
2019-05-12T07:00:04.554Z,9.39
2019-05-12T07:02:36.963Z,9.62
2019-05-12T07:05:04.389Z,9.57
2019-05-12T07:07:41.737Z,9.58
2019-05-12T07:10:11.607Z,9.51
2019-05-12T07:12:43.555Z,9.52
2019-05-12T07:15:06.274Z,9.66
2019-05-12T07:17:43.836Z,9.65
2019-05-12T07:20:09.565Z,9.60
2019-05-12T07:22:44.225Z,9.60
2019-05-12T07:25:08.537Z,9.68
2019-05-12T07:27:39.698Z,9.61
2019-05-12T07:30:07.659Z,9.58
2019-05-12T07:32:36.089Z,9.58
2019-05-12T07:35:06.664Z,9.67
2019-05-12T07:37:35.644Z,9.67
2019-05-12T07:40:06.039Z,9.60
2019-05-12T07:42:39.411Z,9.53
2019-05-12T07:45:11.497Z,9.56
2019-05-12T07:47:37.136Z,9.64
2019-05-12T07:50:09.757Z,9.63
2019-05-12T07:52:38.449Z,9.67
2019-05-12T07:55:07.238Z,9.73
2019-05-12T07:57:50.684Z,9.56
2019-05-12T08:00:11.357Z,9.64
2019-05-12T08:02:39.729Z,9.58
2019-05-12T08:05:11.137Z,9.63
2019-05-12T08:07:39.333Z,9.83
2019-05-12T08:10:15.783Z,9.80
2019-05-12T08:12:38.357Z,9.86
2019-05-12T08:15:10.890Z,9.92
2019-05-12T08:17:39.309Z,9.82
2019-05-12T08:20:08.851Z,9.82
2019-05-12T08:22:37.289Z,9.84
2019-05-12T08:25:07.359Z,9.87
2019-05-12T08:27:39.191Z,10.08
2019-05-12T08:30:06.749Z,10.25
2019-05-12T08:32:35.171Z,10.10
2019-05-12T08:35:05.036Z,10.14
2019-05-12T08:37:33.583Z,10.22
2019-05-12T08:40:05.984Z,10.51
2019-05-12T08:42:34.316Z,10.57
2019-05-12T08:45:04.534Z,10.75
2019-05-12T08:47:35.586Z,10.72
2019-05-12T08:50:04.827Z,10.63
2019-05-12T08:52:37.231Z,10.77
2019-05-12T08:55:04.259Z,10.87
2019-05-12T08:57:40.835Z,10.84
2019-05-12T09:00:08.458Z,10.89
2019-05-12T09:02:34.509Z,10.74
2019-05-12T09:05:04.682Z,10.73
2019-05-12T09:07:35.781Z,10.77
2019-05-12T09:10:04.308Z,11.01
2019-05-12T09:12:33.793Z,10.81
2019-05-12T09:15:04.280Z,10.92
2019-05-12T09:17:34.721Z,11.09
2019-05-12T09:20:08.180Z,11.08
2019-05-12T09:22:34.298Z,10.92
2019-05-12T09:25:06.247Z,10.98
2019-05-12T09:27:33.602Z,11.06
2019-05-12T09:30:05.360Z,11.56
2019-05-12T09:32:33.934Z,11.98
2019-05-12T09:35:03.980Z,11.94
2019-05-12T09:37:38.766Z,12.67
2019-05-12T09:40:04.632Z,13.27
2019-05-12T09:42:33.513Z,14.14
2019-05-12T09:45:06.126Z,14.34
2019-05-12T09:47:34.245Z,14.19
2019-05-12T09:50:04.359Z,13.51
2019-05-12T09:52:33.332Z,13.85
2019-05-12T09:55:04.071Z,14.18
2019-05-12T09:57:40.410Z,13.37
2019-05-12T10:00:04.479Z,12.78
2019-05-12T10:02:32.445Z,13.96
2019-05-12T10:05:01.138Z,14.93
2019-05-12T10:07:30.193Z,15.26
2019-05-12T10:09:59.162Z,15.43
2019-05-12T10:12:29.804Z,14.97
2019-05-12T10:14:58.225Z,13.62
2019-05-12T10:17:30.152Z,13.62
2019-05-12T10:19:58.240Z,13.21
2019-05-12T10:22:29.988Z,13.29
2019-05-12T10:24:58.880Z,14.66
2019-05-12T10:27:31.878Z,15.30
2019-05-12T10:30:05.629Z,14.88
2019-05-12T10:32:28.087Z,13.73
2019-05-12T10:34:56.599Z,13.88
2019-05-12T10:37:29.219Z,14.66
2019-05-12T10:39:55.210Z,16.00
2019-05-12T10:42:24.348Z,14.13
2019-05-12T10:44:56.715Z,13.61
2019-05-12T10:47:25.227Z,14.43
2019-05-12T10:49:53.952Z,16.50
2019-05-12T10:52:24.422Z,17.42
2019-05-12T10:54:53.816Z,15.97
2019-05-12T10:57:22.351Z,16.50
2019-05-12T10:59:50.807Z,15.01
2019-05-12T11:02:20.593Z,13.90
2019-05-12T11:04:49.437Z,14.13
2019-05-12T11:07:17.891Z,15.30
2019-05-12T11:09:46.483Z,17.06
2019-05-12T11:12:19.028Z,17.72
2019-05-12T11:14:45.331Z,17.98
2019-05-12T11:17:14.399Z,17.27
2019-05-12T11:19:47.169Z,16.88
2019-05-12T11:22:15.519Z,17.50
2019-05-12T11:24:44.545Z,15.97
2019-05-12T11:27:13.502Z,16.67
2019-05-12T11:29:48.544Z,16.99
2019-05-12T11:32:14.015Z,16.13
2019-05-12T11:34:44.306Z,15.31
2019-05-12T11:37:13.851Z,14.53
2019-05-12T11:39:45.287Z,14.38
2019-05-12T11:42:13.669Z,17.57
2019-05-12T11:44:44.175Z,18.37
2019-05-12T11:47:14.795Z,16.40
2019-05-12T11:49:44.142Z,16.42
2019-05-12T11:52:16.741Z,15.79
2019-05-12T11:54:49.149Z,15.69
2019-05-12T11:57:13.354Z,15.98
2019-05-12T11:59:47.477Z,15.86
2019-05-12T12:02:13.567Z,15.89
2019-05-12T12:04:43.695Z,15.90
2019-05-12T12:07:12.320Z,15.73
2019-05-12T12:09:40.775Z,15.38
2019-05-12T12:12:09.303Z,15.51
2019-05-12T12:14:40.105Z,14.88
2019-05-12T12:17:07.930Z,14.64
2019-05-12T12:19:43.628Z,14.71
2019-05-12T12:22:06.640Z,14.71
2019-05-12T12:24:38.206Z,14.55
2019-05-12T12:27:05.286Z,14.41
2019-05-12T12:29:34.523Z,14.45
2019-05-12T12:32:04.636Z,14.40
2019-05-12T12:34:33.192Z,14.31
2019-05-12T12:37:03.402Z,14.37
2019-05-12T12:39:31.790Z,14.23
2019-05-12T12:42:00.912Z,14.39
2019-05-12T12:44:29.394Z,14.71
2019-05-12T12:47:00.088Z,15.34
2019-05-12T12:49:29.510Z,15.31
2019-05-12T12:51:58.036Z,15.46
2019-05-12T12:54:26.565Z,15.01
2019-05-12T12:56:55.020Z,14.58
2019-05-12T12:59:24.059Z,15.03
2019-05-12T13:01:52.667Z,15.52
2019-05-12T13:04:21.160Z,15.69
2019-05-12T13:06:49.631Z,15.74
2019-05-12T13:09:24.267Z,15.00
2019-05-12T13:11:48.437Z,15.02
2019-05-12T13:14:16.849Z,15.29
2019-05-12T13:16:49.456Z,15.71
2019-05-12T13:19:17.213Z,15.78
2019-05-12T13:21:45.771Z,15.17
2019-05-12T13:24:14.287Z,15.47
2019-05-12T13:26:43.566Z,15.35
2019-05-12T13:29:13.386Z,15.29
2019-05-12T13:31:46.472Z,15.58
2019-05-12T13:34:14.237Z,15.25
2019-05-12T13:36:44.042Z,15.61
2019-05-12T13:39:16.316Z,15.62
2019-05-12T13:41:43.775Z,15.73
2019-05-12T13:44:13.681Z,15.63
2019-05-12T13:46:43.708Z,15.90
2019-05-12T13:49:14.094Z,15.54
2019-05-12T13:51:42.967Z,14.95
2019-05-12T13:54:14.391Z,15.21
2019-05-12T13:56:44.346Z,15.41
2019-05-12T13:59:20.731Z,15.44
2019-05-12T14:01:45.810Z,15.39
2019-05-12T14:04:13.915Z,15.21
2019-05-12T14:06:42.590Z,15.18
2019-05-12T14:09:13.439Z,15.20
2019-05-12T14:11:43.482Z,15.33
2019-05-12T14:14:15.162Z,14.79
2019-05-12T14:16:44.546Z,14.79
2019-05-12T14:19:14.231Z,14.79
2019-05-12T14:21:42.556Z,14.96
2019-05-12T14:24:13.729Z,14.98
2019-05-12T14:26:45.388Z,14.67
2019-05-12T14:29:13.776Z,14.69
2019-05-12T14:31:50.984Z,14.81
2019-05-12T14:34:18.849Z,14.80
2019-05-12T14:36:43.361Z,14.81
2019-05-12T14:39:13.366Z,14.57
2019-05-12T14:41:44.561Z,14.64
2019-05-12T14:44:13.751Z,14.89
2019-05-12T14:46:46.328Z,14.87
2019-05-12T14:49:14.152Z,14.82
2019-05-12T14:51:44.301Z,14.68
2019-05-12T14:54:13.432Z,14.57
2019-05-12T14:56:44.857Z,14.70
2019-05-12T14:59:14.472Z,14.59
2019-05-12T15:01:56.930Z,14.77
2019-05-12T15:04:13.313Z,14.81
2019-05-12T15:06:44.167Z,14.63
2019-05-12T15:09:19.667Z,14.55
2019-05-12T15:11:43.688Z,14.55
2019-05-12T15:14:13.785Z,14.48
2019-05-12T15:16:44.847Z,14.53
2019-05-12T15:19:13.950Z,14.66
2019-05-12T15:21:43.725Z,14.66
2019-05-12T15:24:16.991Z,14.64
2019-05-12T15:26:42.732Z,14.67
2019-05-12T15:29:17.957Z,14.75
2019-05-12T15:31:52.717Z,14.74
2019-05-12T15:34:13.694Z,14.73
2019-05-12T15:36:45.877Z,14.60
2019-05-12T15:39:13.967Z,14.74
2019-05-12T15:41:42.624Z,14.75
2019-05-12T15:44:11.072Z,14.71
2019-05-12T15:46:40.950Z,14.64
2019-05-12T15:49:09.776Z,14.69
2019-05-12T15:51:39.260Z,14.68
2019-05-12T15:54:11.663Z,14.67
2019-05-12T15:56:38.946Z,14.68
2019-05-12T15:59:07.446Z,14.74
2019-05-12T16:01:35.818Z,14.73
2019-05-12T16:04:04.542Z,14.68
2019-05-12T16:06:33.132Z,14.46
2019-05-12T16:09:03.850Z,14.24
2019-05-12T16:11:33.419Z,14.27
2019-05-12T16:14:01.925Z,14.58
2019-05-12T16:16:36.408Z,14.58
2019-05-12T16:19:00.680Z,14.62
2019-05-12T16:21:29.080Z,14.65
2019-05-12T16:24:03.050Z,14.77
2019-05-12T16:26:27.947Z,14.83
2019-05-12T16:29:03.243Z,14.81
2019-05-12T16:31:26.514Z,14.89
2019-05-12T16:34:01.224Z,14.87
2019-05-12T16:36:25.081Z,14.87
2019-05-12T16:38:58.043Z,14.83
2019-05-12T16:41:27.915Z,14.73
2019-05-12T16:43:53.867Z,14.74
2019-05-12T16:46:23.469Z,14.74
2019-05-12T16:48:56.233Z,14.81
2019-05-12T16:51:23.871Z,14.83
2019-05-12T16:53:54.014Z,14.85
2019-05-12T16:56:28.061Z,14.84
2019-05-12T16:58:54.166Z,14.87
2019-05-12T17:01:25.978Z,14.81
2019-05-12T17:03:54.657Z,14.79
2019-05-12T17:06:23.413Z,14.77
2019-05-12T17:08:54.254Z,14.77
2019-05-12T17:11:29.748Z,14.87
2019-05-12T17:13:59.757Z,14.83
2019-05-12T17:16:22.261Z,14.90
2019-05-12T17:18:50.718Z,14.87
2019-05-12T17:21:19.134Z,14.79
2019-05-12T17:23:47.620Z,14.81
2019-05-12T17:26:16.054Z,14.78
2019-05-12T17:28:44.589Z,14.76
2019-05-12T17:31:13.012Z,14.60
2019-05-12T17:33:41.438Z,14.56
2019-05-12T17:36:12.392Z,14.44
2019-05-12T17:38:40.008Z,14.39
2019-05-12T17:41:08.448Z,14.42
2019-05-12T17:43:39.997Z,14.45
2019-05-12T17:46:07.019Z,14.41
2019-05-12T17:48:37.446Z,14.40
2019-05-12T17:51:05.829Z,14.42
2019-05-12T17:53:36.065Z,14.41
2019-05-12T17:56:04.867Z,14.39
2019-05-12T17:58:36.619Z,14.36
2019-05-12T18:01:03.772Z,14.30
2019-05-12T18:03:34.269Z,14.29
2019-05-12T18:06:04.149Z,14.21
2019-05-12T18:08:35.654Z,14.23
2019-05-12T18:11:03.762Z,14.17
2019-05-12T18:13:34.416Z,14.16
2019-05-12T18:16:05.299Z,14.07
2019-05-12T18:18:38.072Z,14.11
2019-05-12T18:21:03.556Z,14.01
2019-05-12T18:23:34.335Z,14.04
2019-05-12T18:26:11.284Z,14.08
2019-05-12T18:28:33.456Z,13.90
2019-05-12T18:31:04.303Z,13.92
2019-05-12T18:33:34.869Z,14.01
2019-05-12T18:36:03.847Z,13.97
2019-05-12T18:38:35.233Z,13.87
2019-05-12T18:41:03.543Z,13.88
2019-05-12T18:43:34.612Z,13.85
2019-05-12T18:46:08.333Z,13.85
2019-05-12T18:48:34.374Z,13.80
2019-05-12T18:51:11.973Z,13.63
2019-05-12T18:53:34.950Z,13.67
2019-05-12T18:56:04.580Z,13.72
2019-05-12T18:58:35.305Z,13.64
2019-05-12T19:01:04.751Z,13.49
2019-05-12T19:03:44.789Z,13.57
2019-05-12T19:06:03.563Z,13.56
2019-05-12T19:08:32.011Z,13.58
2019-05-12T19:11:17.861Z,13.55
2019-05-12T19:13:33.805Z,13.59
2019-05-12T19:16:06.334Z,13.53
2019-05-12T19:18:36.963Z,13.58
2019-05-12T19:21:04.671Z,13.48
2019-05-12T19:23:35.396Z,13.47
2019-05-12T19:26:04.230Z,13.46
2019-05-12T19:28:34.231Z,13.43
2019-05-12T19:31:06.170Z,13.46
2019-05-12T19:33:33.190Z,13.49
2019-05-12T19:36:05.393Z,13.36
2019-05-12T19:38:34.415Z,13.38
2019-05-12T19:41:04.441Z,13.22
2019-05-12T19:43:33.971Z,13.08
2019-05-12T19:46:04.598Z,13.06
2019-05-12T19:48:35.041Z,13.20
2019-05-12T19:51:20.384Z,13.13
2019-05-12T19:53:33.612Z,13.00
2019-05-12T19:56:03.868Z,12.98
2019-05-12T19:58:34.031Z,12.87
2019-05-12T20:01:03.666Z,12.88
2019-05-12T20:03:33.475Z,12.76
2019-05-12T20:06:02.048Z,12.73
2019-05-12T20:08:30.574Z,12.65
2019-05-12T20:10:58.999Z,12.65
2019-05-12T20:13:29.475Z,12.50
2019-05-12T20:15:57.611Z,12.40
2019-05-12T20:18:26.068Z,12.47
2019-05-12T20:20:54.490Z,12.36
2019-05-12T20:23:24.524Z,12.29
2019-05-12T20:25:53.583Z,12.39
2019-05-12T20:28:24.265Z,12.27
2019-05-12T20:31:00.831Z,12.17
2019-05-12T20:33:24.016Z,12.29
2019-05-12T20:35:54.734Z,12.24
2019-05-12T20:38:25.407Z,12.17
2019-05-12T20:40:54.185Z,12.21
2019-05-12T20:43:31.823Z,12.20
2019-05-12T20:45:53.573Z,12.13
2019-05-12T20:48:29.184Z,12.17
2019-05-12T20:50:52.291Z,12.07
2019-05-12T20:53:24.787Z,11.88
2019-05-12T20:55:51.159Z,11.83
2019-05-12T20:58:19.577Z,11.83
2019-05-12T21:00:50.174Z,11.78
2019-05-12T21:03:18.383Z,11.79
2019-05-12T21:05:50.596Z,11.76
2019-05-12T21:08:17.147Z,11.74
2019-05-12T21:10:45.585Z,11.61
2019-05-12T21:13:14.674Z,11.67
2019-05-12T21:15:45.824Z,11.64
2019-05-12T21:18:14.732Z,11.65
2019-05-12T21:20:46.428Z,11.63
2019-05-12T21:23:13.635Z,11.50
2019-05-12T21:25:43.891Z,11.56
2019-05-12T21:28:14.687Z,11.40
2019-05-12T21:30:47.954Z,11.39
2019-05-12T21:33:14.760Z,11.41
2019-05-12T21:35:45.764Z,11.41
2019-05-12T21:38:13.423Z,11.33
2019-05-12T21:40:44.205Z,11.25
2019-05-12T21:43:13.499Z,11.26
2019-05-12T21:45:42.208Z,11.27
2019-05-12T21:48:14.994Z,11.26
2019-05-12T21:50:44.454Z,11.24
2019-05-12T21:53:17.657Z,11.14
2019-05-12T21:55:44.375Z,11.23
2019-05-12T21:58:15.270Z,11.06
2019-05-12T22:00:50.482Z,11.11
2019-05-12T22:03:17.984Z,11.03
2019-05-12T22:05:51.622Z,11.02
2019-05-12T22:08:21.994Z,11.04
2019-05-12T22:10:48.385Z,10.96
2019-05-12T22:13:18.140Z,10.98
2019-05-12T22:15:51.388Z,10.86
2019-05-12T22:18:19.289Z,10.90
2019-05-12T22:20:52.222Z,10.86
2019-05-12T22:23:17.626Z,10.81
2019-05-12T22:25:49.037Z,10.85
2019-05-12T22:28:16.399Z,10.89
2019-05-12T22:30:44.834Z,10.90
2019-05-12T22:33:14.787Z,10.73
2019-05-12T22:35:44.455Z,10.57
2019-05-12T22:38:16.589Z,10.70
2019-05-12T22:40:43.322Z,10.54
2019-05-12T22:43:14.056Z,10.52
2019-05-12T22:45:54.735Z,10.41
2019-05-12T22:48:40.321Z,10.49
2019-05-12T22:51:23.765Z,10.53
2019-05-12T22:57:24.219Z,10.58
2019-05-12T22:59:32.055Z,10.35
2019-05-12T23:04:52.021Z,10.25
2019-05-12T23:07:27.804Z,10.22
2019-05-12T23:09:50.725Z,10.26
2019-05-12T23:12:20.257Z,10.20
2019-05-12T23:14:56.494Z,10.13
2019-05-12T23:17:19.042Z,10.14
2019-05-12T23:19:51.385Z,10.10
2019-05-12T23:22:17.993Z,10.08
2019-05-12T23:24:46.414Z,10.07
2019-05-12T23:27:18.830Z,10.05
2019-05-12T23:29:45.210Z,10.09
2019-05-12T23:32:15.044Z,10.10
2019-05-12T23:34:47.114Z,9.92
2019-05-12T23:37:14.116Z,9.87
2019-05-12T23:39:44.262Z,10.08
2019-05-12T23:42:13.617Z,10.01
2019-05-12T23:44:44.182Z,9.98
2019-05-12T23:47:12.503Z,9.96
2019-05-12T23:49:41.103Z,9.92
2019-05-12T23:52:09.577Z,9.86
2019-05-12T23:54:38.223Z,9.83
2019-05-12T23:57:06.665Z,9.83
2019-05-12T23:59:35.163Z,9.78
